sensor_id;sensor_type;location;lat;lon;timestamp;P1;durP1;ratioP1;P2;durP2;ratioP2
47812;SDS011;34221;45.296;9.516;2023-04-09T00:00:11;11.80;;;10.03;;
47812;SDS011;34221;45.296;9.516;2023-04-09T00:00:27;11.70;;;10.23;;
47812;SDS011;34221;45.296;9.516;2023-04-09T00:00:42;13.25;;;10.65;;
47812;SDS011;34221;45.296;9.516;2023-04-09T00:01:01;13.65;;;10.48;;
47812;SDS011;34221;45.296;9.516;2023-04-09T00:01:16;12.48;;;10.38;;
47812;SDS011;34221;45.296;9.516;2023-04-09T00:01:31;14.45;;;10.30;;
47812;SDS011;34221;45.296;9.516;2023-04-09T00:01:46;14.20;;;10.00;;
47812;SDS011;34221;45.296;9.516;2023-04-09T00:02:00;13.05;;;10.57;;
47812;SDS011;34221;45.296;9.516;2023-04-09T00:02:15;14.20;;;11.27;;
47812;SDS011;34221;45.296;9.516;2023-04-09T00:02:30;14.45;;;11.38;;
47812;SDS011;34221;45.296;9.516;2023-04-09T00:02:49;14.15;;;11.10;;
47812;SDS011;34221;45.296;9.516;2023-04-09T00:03:04;12.93;;;10.57;;
47812;SDS011;34221;45.296;9.516;2023-04-09T00:03:19;12.43;;;10.70;;
47812;SDS011;34221;45.296;9.516;2023-04-09T00:03:33;13.75;;;10.63;;
47812;SDS011;34221;45.296;9.516;2023-04-09T00:03:49;15.73;;;10.90;;
47812;SDS011;34221;45.296;9.516;2023-04-09T00:04:04;15.43;;;11.38;;
47812;SDS011;34221;45.296;9.516;2023-04-09T00:04:19;13.80;;;10.77;;
47812;SDS011;34221;45.296;9.516;2023-04-09T00:04:35;15.18;;;10.82;;
47812;SDS011;34221;45.296;9.516;2023-04-09T00:04:50;15.05;;;10.85;;
47812;SDS011;34221;45.296;9.516;2023-04-09T00:05:05;13.38;;;10.43;;
47812;SDS011;34221;45.296;9.516;2023-04-09T00:05:21;13.35;;;10.50;;
47812;SDS011;34221;45.296;9.516;2023-04-09T00:05:39;12.90;;;10.52;;
47812;SDS011;34221;45.296;9.516;2023-04-09T00:05:54;13.55;;;10.57;;
47812;SDS011;34221;45.296;9.516;2023-04-09T00:06:10;13.60;;;10.52;;
47812;SDS011;34221;45.296;9.516;2023-04-09T00:06:25;12.02;;;10.27;;
47812;SDS011;34221;45.296;9.516;2023-04-09T00:06:40;13.05;;;10.35;;
47812;SDS011;34221;45.296;9.516;2023-04-09T00:06:55;14.18;;;10.80;;
47812;SDS011;34221;45.296;9.516;2023-04-09T00:07:09;15.03;;;11.40;;
47812;SDS011;34221;45.296;9.516;2023-04-09T00:07:24;14.70;;;11.20;;
47812;SDS011;34221;45.296;9.516;2023-04-09T00:07:39;13.65;;;11.00;;
47812;SDS011;34221;45.296;9.516;2023-04-09T00:07:54;12.45;;;10.50;;
47812;SDS011;34221;45.296;9.516;2023-04-09T00:08:09;11.82;;;10.18;;
47812;SDS011;34221;45.296;9.516;2023-04-09T00:08:24;13.85;;;11.52;;
47812;SDS011;34221;45.296;9.516;2023-04-09T00:08:39;13.52;;;11.32;;
47812;SDS011;34221;45.296;9.516;2023-04-09T00:08:53;13.10;;;10.73;;
47812;SDS011;34221;45.296;9.516;2023-04-09T00:09:08;14.25;;;11.13;;
47812;SDS011;34221;45.296;9.516;2023-04-09T00:09:23;14.77;;;11.23;;
47812;SDS011;34221;45.296;9.516;2023-04-09T00:09:38;13.80;;;10.90;;
47812;SDS011;34221;45.296;9.516;2023-04-09T00:09:55;13.15;;;10.65;;
47812;SDS011;34221;45.296;9.516;2023-04-09T00:10:10;13.95;;;11.07;;
47812;SDS011;34221;45.296;9.516;2023-04-09T00:10:25;15.88;;;12.15;;
47812;SDS011;34221;45.296;9.516;2023-04-09T00:10:40;15.13;;;11.57;;
47812;SDS011;34221;45.296;9.516;2023-04-09T00:10:56;14.82;;;11.10;;
47812;SDS011;34221;45.296;9.516;2023-04-09T00:11:11;15.10;;;11.57;;
47812;SDS011;34221;45.296;9.516;2023-04-09T00:11:26;13.37;;;11.43;;
47812;SDS011;34221;45.296;9.516;2023-04-09T00:11:40;13.02;;;11.10;;
47812;SDS011;34221;45.296;9.516;2023-04-09T00:11:55;13.20;;;10.68;;
47812;SDS011;34221;45.296;9.516;2023-04-09T00:12:11;16.27;;;11.38;;
47812;SDS011;34221;45.296;9.516;2023-04-09T00:12:26;16.25;;;11.52;;
47812;SDS011;34221;45.296;9.516;2023-04-09T00:12:40;13.13;;;10.93;;
47812;SDS011;34221;45.296;9.516;2023-04-09T00:12:55;13.23;;;10.93;;
47812;SDS011;34221;45.296;9.516;2023-04-09T00:13:10;14.57;;;11.52;;
47812;SDS011;34221;45.296;9.516;2023-04-09T00:13:25;15.38;;;12.07;;
47812;SDS011;34221;45.296;9.516;2023-04-09T00:13:40;15.18;;;11.55;;
47812;SDS011;34221;45.296;9.516;2023-04-09T00:13:54;14.45;;;11.13;;
47812;SDS011;34221;45.296;9.516;2023-04-09T00:14:11;14.23;;;11.32;;
47812;SDS011;34221;45.296;9.516;2023-04-09T00:14:25;15.40;;;11.30;;
47812;SDS011;34221;45.296;9.516;2023-04-09T00:14:40;14.40;;;10.90;;
47812;SDS011;34221;45.296;9.516;2023-04-09T00:14:55;13.25;;;11.23;;
47812;SDS011;34221;45.296;9.516;2023-04-09T00:15:10;15.13;;;11.45;;
47812;SDS011;34221;45.296;9.516;2023-04-09T00:15:25;15.23;;;11.50;;
47812;SDS011;34221;45.296;9.516;2023-04-09T00:15:40;13.88;;;11.18;;
47812;SDS011;34221;45.296;9.516;2023-04-09T00:15:55;14.00;;;10.65;;
47812;SDS011;34221;45.296;9.516;2023-04-09T00:16:09;15.43;;;11.50;;
47812;SDS011;34221;45.296;9.516;2023-04-09T00:16:24;15.80;;;12.20;;
47812;SDS011;34221;45.296;9.516;2023-04-09T00:16:39;18.57;;;11.97;;
47812;SDS011;34221;45.296;9.516;2023-04-09T00:16:54;18.77;;;11.60;;
47812;SDS011;34221;45.296;9.516;2023-04-09T00:17:09;15.16;;;10.96;;
47812;SDS011;34221;45.296;9.516;2023-04-09T00:17:24;15.25;;;11.35;;
47812;SDS011;34221;45.296;9.516;2023-04-09T00:17:38;16.53;;;12.10;;
47812;SDS011;34221;45.296;9.516;2023-04-09T00:17:53;15.60;;;11.45;;
47812;SDS011;34221;45.296;9.516;2023-04-09T00:18:09;13.82;;;11.30;;
47812;SDS011;34221;45.296;9.516;2023-04-09T00:18:24;15.30;;;11.93;;
47812;SDS011;34221;45.296;9.516;2023-04-09T00:18:38;16.15;;;12.27;;
47812;SDS011;34221;45.296;9.516;2023-04-09T00:18:53;14.53;;;11.90;;
47812;SDS011;34221;45.296;9.516;2023-04-09T00:19:09;14.43;;;11.57;;
47812;SDS011;34221;45.296;9.516;2023-04-09T00:19:29;15.55;;;12.18;;
47812;SDS011;34221;45.296;9.516;2023-04-09T00:19:44;16.13;;;12.70;;
47812;SDS011;34221;45.296;9.516;2023-04-09T00:19:59;17.05;;;13.00;;
47812;SDS011;34221;45.296;9.516;2023-04-09T00:20:14;18.77;;;12.75;;
47812;SDS011;34221;45.296;9.516;2023-04-09T00:20:29;18.27;;;12.07;;
47812;SDS011;34221;45.296;9.516;2023-04-09T00:20:43;16.75;;;11.50;;
47812;SDS011;34221;45.296;9.516;2023-04-09T00:20:58;15.90;;;11.50;;
47812;SDS011;34221;45.296;9.516;2023-04-09T00:21:13;15.52;;;11.85;;
47812;SDS011;34221;45.296;9.516;2023-04-09T00:21:29;15.57;;;12.13;;
47812;SDS011;34221;45.296;9.516;2023-04-09T00:21:44;16.02;;;12.52;;
47812;SDS011;34221;45.296;9.516;2023-04-09T00:21:59;16.60;;;13.13;;
47812;SDS011;34221;45.296;9.516;2023-04-09T00:22:14;16.42;;;13.43;;
47812;SDS011;34221;45.296;9.516;2023-04-09T00:22:29;17.05;;;13.38;;
47812;SDS011;34221;45.296;9.516;2023-04-09T00:22:44;16.45;;;13.02;;
47812;SDS011;34221;45.296;9.516;2023-04-09T00:22:59;16.80;;;12.43;;
47812;SDS011;34221;45.296;9.516;2023-04-09T00:23:13;16.97;;;11.83;;
47812;SDS011;34221;45.296;9.516;2023-04-09T00:23:28;17.73;;;12.30;;
47812;SDS011;34221;45.296;9.516;2023-04-09T00:23:43;16.75;;;12.10;;
47812;SDS011;34221;45.296;9.516;2023-04-09T00:23:58;14.53;;;11.60;;
47812;SDS011;34221;45.296;9.516;2023-04-09T00:24:13;14.70;;;11.55;;
47812;SDS011;34221;45.296;9.516;2023-04-09T00:24:28;14.48;;;11.65;;
47812;SDS011;34221;45.296;9.516;2023-04-09T00:24:42;15.23;;;11.77;;
47812;SDS011;34221;45.296;9.516;2023-04-09T00:24:57;15.35;;;11.85;;
47812;SDS011;34221;45.296;9.516;2023-04-09T00:25:12;14.60;;;12.05;;
47812;SDS011;34221;45.296;9.516;2023-04-09T00:25:27;14.90;;;12.33;;
47812;SDS011;34221;45.296;9.516;2023-04-09T00:25:41;15.10;;;12.00;;
47812;SDS011;34221;45.296;9.516;2023-04-09T00:25:56;13.43;;;11.00;;
47812;SDS011;34221;45.296;9.516;2023-04-09T00:26:11;14.73;;;11.35;;
47812;SDS011;34221;45.296;9.516;2023-04-09T00:26:27;14.90;;;11.43;;
47812;SDS011;34221;45.296;9.516;2023-04-09T00:26:41;12.77;;;11.00;;
47812;SDS011;34221;45.296;9.516;2023-04-09T00:26:56;13.07;;;11.10;;
47812;SDS011;34221;45.296;9.516;2023-04-09T00:27:11;14.18;;;11.73;;
47812;SDS011;34221;45.296;9.516;2023-04-09T00:27:25;14.20;;;11.98;;
47812;SDS011;34221;45.296;9.516;2023-04-09T00:27:40;16.70;;;12.05;;
47812;SDS011;34221;45.296;9.516;2023-04-09T00:27:55;17.42;;;12.60;;
47812;SDS011;34221;45.296;9.516;2023-04-09T00:28:10;15.57;;;12.60;;
47812;SDS011;34221;45.296;9.516;2023-04-09T00:28:25;14.45;;;12.07;;
47812;SDS011;34221;45.296;9.516;2023-04-09T00:28:39;14.43;;;11.63;;
47812;SDS011;34221;45.296;9.516;2023-04-09T00:28:54;16.70;;;12.47;;
47812;SDS011;34221;45.296;9.516;2023-04-09T00:29:09;16.98;;;12.73;;
47812;SDS011;34221;45.296;9.516;2023-04-09T00:29:24;16.05;;;12.35;;
47812;SDS011;34221;45.296;9.516;2023-04-09T00:29:38;14.75;;;11.88;;
47812;SDS011;34221;45.296;9.516;2023-04-09T00:29:54;16.60;;;12.00;;
47812;SDS011;34221;45.296;9.516;2023-04-09T00:30:09;17.65;;;12.55;;
47812;SDS011;34221;45.296;9.516;2023-04-09T00:30:24;15.60;;;11.93;;
47812;SDS011;34221;45.296;9.516;2023-04-09T00:30:42;14.63;;;11.82;;
47812;SDS011;34221;45.296;9.516;2023-04-09T00:30:56;15.20;;;12.63;;
47812;SDS011;34221;45.296;9.516;2023-04-09T00:31:11;16.80;;;12.82;;
47812;SDS011;34221;45.296;9.516;2023-04-09T00:31:26;17.48;;;12.45;;
47812;SDS011;34221;45.296;9.516;2023-04-09T00:31:41;17.63;;;13.35;;
47812;SDS011;34221;45.296;9.516;2023-04-09T00:31:55;16.95;;;13.48;;
47812;SDS011;34221;45.296;9.516;2023-04-09T00:32:10;16.63;;;12.85;;
47812;SDS011;34221;45.296;9.516;2023-04-09T00:32:25;18.53;;;13.70;;
47812;SDS011;34221;45.296;9.516;2023-04-09T00:32:40;19.35;;;13.98;;
47812;SDS011;34221;45.296;9.516;2023-04-09T00:32:55;17.77;;;13.48;;
47812;SDS011;34221;45.296;9.516;2023-04-09T00:33:10;15.60;;;13.25;;
47812;SDS011;34221;45.296;9.516;2023-04-09T00:33:25;16.13;;;12.83;;
47812;SDS011;34221;45.296;9.516;2023-04-09T00:33:40;17.83;;;12.90;;
47812;SDS011;34221;45.296;9.516;2023-04-09T00:33:55;18.67;;;12.82;;
47812;SDS011;34221;45.296;9.516;2023-04-09T00:34:09;16.65;;;12.38;;
47812;SDS011;34221;45.296;9.516;2023-04-09T00:34:24;19.37;;;12.73;;
47812;SDS011;34221;45.296;9.516;2023-04-09T00:34:39;20.58;;;13.05;;
47812;SDS011;34221;45.296;9.516;2023-04-09T00:34:54;15.95;;;13.02;;
47812;SDS011;34221;45.296;9.516;2023-04-09T00:35:09;14.68;;;12.75;;
47812;SDS011;34221;45.296;9.516;2023-04-09T00:35:24;17.63;;;13.30;;
47812;SDS011;34221;45.296;9.516;2023-04-09T00:35:39;17.90;;;13.25;;
47812;SDS011;34221;45.296;9.516;2023-04-09T00:35:54;14.28;;;12.16;;
47812;SDS011;34221;45.296;9.516;2023-04-09T00:36:09;14.95;;;12.35;;
47812;SDS011;34221;45.296;9.516;2023-04-09T00:36:24;16.38;;;12.88;;
47812;SDS011;34221;45.296;9.516;2023-04-09T00:36:39;17.00;;;13.50;;
47812;SDS011;34221;45.296;9.516;2023-04-09T00:36:54;17.35;;;13.93;;
47812;SDS011;34221;45.296;9.516;2023-04-09T00:37:08;17.60;;;13.88;;
47812;SDS011;34221;45.296;9.516;2023-04-09T00:37:23;17.08;;;13.35;;
47812;SDS011;34221;45.296;9.516;2023-04-09T00:37:38;16.05;;;12.85;;
47812;SDS011;34221;45.296;9.516;2023-04-09T00:37:53;15.93;;;12.53;;
47812;SDS011;34221;45.296;9.516;2023-04-09T00:38:08;16.25;;;12.63;;
47812;SDS011;34221;45.296;9.516;2023-04-09T00:38:23;16.17;;;12.82;;
47812;SDS011;34221;45.296;9.516;2023-04-09T00:38:37;15.82;;;12.73;;
47812;SDS011;34221;45.296;9.516;2023-04-09T00:38:52;15.70;;;12.73;;
47812;SDS011;34221;45.296;9.516;2023-04-09T00:39:07;16.23;;;12.68;;
47812;SDS011;34221;45.296;9.516;2023-04-09T00:39:22;15.55;;;12.20;;
47812;SDS011;34221;45.296;9.516;2023-04-09T00:39:37;15.75;;;12.30;;
47812;SDS011;34221;45.296;9.516;2023-04-09T00:39:52;15.87;;;12.53;;
47812;SDS011;34221;45.296;9.516;2023-04-09T00:40:07;17.15;;;11.85;;
47812;SDS011;34221;45.296;9.516;2023-04-09T00:40:22;17.15;;;11.75;;
47812;SDS011;34221;45.296;9.516;2023-04-09T00:40:36;15.00;;;12.10;;
47812;SDS011;34221;45.296;9.516;2023-04-09T00:40:51;16.30;;;12.50;;
47812;SDS011;34221;45.296;9.516;2023-04-09T00:41:06;17.47;;;13.00;;
47812;SDS011;34221;45.296;9.516;2023-04-09T00:41:21;16.13;;;12.67;;
47812;SDS011;34221;45.296;9.516;2023-04-09T00:41:35;14.93;;;12.07;;
47812;SDS011;34221;45.296;9.516;2023-04-09T00:41:54;16.55;;;12.73;;
47812;SDS011;34221;45.296;9.516;2023-04-09T00:42:15;16.27;;;12.93;;
47812;SDS011;34221;45.296;9.516;2023-04-09T00:42:33;16.67;;;13.25;;
47812;SDS011;34221;45.296;9.516;2023-04-09T00:42:49;16.13;;;13.05;;
47812;SDS011;34221;45.296;9.516;2023-04-09T00:43:04;16.63;;;13.63;;
47812;SDS011;34221;45.296;9.516;2023-04-09T00:43:19;16.50;;;13.50;;
47812;SDS011;34221;45.296;9.516;2023-04-09T00:43:34;16.02;;;12.77;;
47812;SDS011;34221;45.296;9.516;2023-04-09T00:43:49;16.73;;;12.65;;
47812;SDS011;34221;45.296;9.516;2023-04-09T00:44:04;19.30;;;13.17;;
47812;SDS011;34221;45.296;9.516;2023-04-09T00:44:18;19.13;;;13.47;;
47812;SDS011;34221;45.296;9.516;2023-04-09T00:44:33;16.30;;;13.27;;
47812;SDS011;34221;45.296;9.516;2023-04-09T00:44:48;16.30;;;12.93;;
47812;SDS011;34221;45.296;9.516;2023-04-09T00:45:03;16.05;;;12.80;;
47812;SDS011;34221;45.296;9.516;2023-04-09T00:45:19;16.30;;;12.88;;
47812;SDS011;34221;45.296;9.516;2023-04-09T00:45:34;16.90;;;12.95;;
47812;SDS011;34221;45.296;9.516;2023-04-09T00:45:49;16.96;;;13.10;;
47812;SDS011;34221;45.296;9.516;2023-04-09T00:46:04;15.30;;;12.77;;
47812;SDS011;34221;45.296;9.516;2023-04-09T00:46:19;14.70;;;12.75;;
47812;SDS011;34221;45.296;9.516;2023-04-09T00:46:34;16.38;;;13.38;;
47812;SDS011;34221;45.296;9.516;2023-04-09T00:46:49;20.07;;;13.63;;
47812;SDS011;34221;45.296;9.516;2023-04-09T00:47:03;19.92;;;13.80;;
47812;SDS011;34221;45.296;9.516;2023-04-09T00:47:18;17.05;;;13.85;;
47812;SDS011;34221;45.296;9.516;2023-04-09T00:47:33;17.88;;;14.13;;
47812;SDS011;34221;45.296;9.516;2023-04-09T00:47:48;17.35;;;13.90;;
47812;SDS011;34221;45.296;9.516;2023-04-09T00:48:03;15.73;;;13.18;;
47812;SDS011;34221;45.296;9.516;2023-04-09T00:48:18;14.93;;;12.85;;
47812;SDS011;34221;45.296;9.516;2023-04-09T00:48:34;14.40;;;12.68;;
47812;SDS011;34221;45.296;9.516;2023-04-09T00:48:49;16.23;;;12.95;;
47812;SDS011;34221;45.296;9.516;2023-04-09T00:49:04;15.95;;;12.60;;
47812;SDS011;34221;45.296;9.516;2023-04-09T00:49:20;15.93;;;12.77;;
47812;SDS011;34221;45.296;9.516;2023-04-09T00:49:36;17.88;;;13.23;;
47812;SDS011;34221;45.296;9.516;2023-04-09T00:49:50;18.47;;;13.60;;
47812;SDS011;34221;45.296;9.516;2023-04-09T00:50:05;17.45;;;13.57;;
47812;SDS011;34221;45.296;9.516;2023-04-09T00:50:20;16.73;;;13.27;;
47812;SDS011;34221;45.296;9.516;2023-04-09T00:50:35;16.40;;;13.45;;
47812;SDS011;34221;45.296;9.516;2023-04-09T00:50:50;16.23;;;13.57;;
47812;SDS011;34221;45.296;9.516;2023-04-09T00:51:05;16.75;;;13.52;;
47812;SDS011;34221;45.296;9.516;2023-04-09T00:51:21;17.95;;;13.25;;
47812;SDS011;34221;45.296;9.516;2023-04-09T00:51:36;19.10;;;13.30;;
47812;SDS011;34221;45.296;9.516;2023-04-09T00:51:51;18.02;;;13.15;;
47812;SDS011;34221;45.296;9.516;2023-04-09T00:52:07;16.88;;;13.20;;
47812;SDS011;34221;45.296;9.516;2023-04-09T00:52:22;18.42;;;14.00;;
47812;SDS011;34221;45.296;9.516;2023-04-09T00:52:37;18.95;;;13.70;;
47812;SDS011;34221;45.296;9.516;2023-04-09T00:52:52;17.40;;;13.05;;
47812;SDS011;34221;45.296;9.516;2023-04-09T00:53:07;17.13;;;13.57;;
47812;SDS011;34221;45.296;9.516;2023-04-09T00:53:23;17.90;;;13.80;;
47812;SDS011;34221;45.296;9.516;2023-04-09T00:53:38;17.75;;;13.70;;
47812;SDS011;34221;45.296;9.516;2023-04-09T00:53:54;17.48;;;13.65;;
47812;SDS011;34221;45.296;9.516;2023-04-09T00:54:09;15.82;;;13.20;;
47812;SDS011;34221;45.296;9.516;2023-04-09T00:54:24;16.15;;;13.40;;
47812;SDS011;34221;45.296;9.516;2023-04-09T00:54:38;16.38;;;13.15;;
47812;SDS011;34221;45.296;9.516;2023-04-09T00:54:53;16.77;;;13.00;;
47812;SDS011;34221;45.296;9.516;2023-04-09T00:55:08;17.77;;;13.43;;
47812;SDS011;34221;45.296;9.516;2023-04-09T00:55:23;19.15;;;13.73;;
47812;SDS011;34221;45.296;9.516;2023-04-09T00:55:39;17.83;;;13.45;;
47812;SDS011;34221;45.296;9.516;2023-04-09T00:55:54;17.00;;;13.82;;
47812;SDS011;34221;45.296;9.516;2023-04-09T00:56:10;18.08;;;14.13;;
47812;SDS011;34221;45.296;9.516;2023-04-09T00:56:26;16.58;;;13.45;;
47812;SDS011;34221;45.296;9.516;2023-04-09T00:56:43;16.50;;;13.18;;
47812;SDS011;34221;45.296;9.516;2023-04-09T00:56:58;16.23;;;13.20;;
47812;SDS011;34221;45.296;9.516;2023-04-09T00:57:14;15.85;;;13.05;;
47812;SDS011;34221;45.296;9.516;2023-04-09T00:57:29;16.83;;;13.45;;
47812;SDS011;34221;45.296;9.516;2023-04-09T00:57:43;17.97;;;13.77;;
47812;SDS011;34221;45.296;9.516;2023-04-09T00:57:58;17.03;;;13.10;;
47812;SDS011;34221;45.296;9.516;2023-04-09T00:58:14;16.83;;;13.27;;
47812;SDS011;34221;45.296;9.516;2023-04-09T00:58:29;18.90;;;14.05;;
47812;SDS011;34221;45.296;9.516;2023-04-09T00:58:44;17.75;;;14.07;;
47812;SDS011;34221;45.296;9.516;2023-04-09T00:58:59;14.82;;;13.18;;
47812;SDS011;34221;45.296;9.516;2023-04-09T00:59:14;14.57;;;12.70;;
47812;SDS011;34221;45.296;9.516;2023-04-09T00:59:29;19.75;;;13.55;;
47812;SDS011;34221;45.296;9.516;2023-04-09T00:59:44;20.55;;;13.85;;
47812;SDS011;34221;45.296;9.516;2023-04-09T00:59:59;16.70;;;13.43;;
47812;SDS011;34221;45.296;9.516;2023-04-09T01:00:15;16.70;;;13.60;;
47812;SDS011;34221;45.296;9.516;2023-04-09T01:00:29;15.60;;;13.15;;
47812;SDS011;34221;45.296;9.516;2023-04-09T01:00:44;16.95;;;13.55;;
47812;SDS011;34221;45.296;9.516;2023-04-09T01:00:59;17.80;;;13.77;;
47812;SDS011;34221;45.296;9.516;2023-04-09T01:01:14;18.23;;;13.32;;
47812;SDS011;34221;45.296;9.516;2023-04-09T01:01:29;18.73;;;13.50;;
47812;SDS011;34221;45.296;9.516;2023-04-09T01:01:44;16.83;;;13.32;;
47812;SDS011;34221;45.296;9.516;2023-04-09T01:01:59;16.13;;;13.13;;
47812;SDS011;34221;45.296;9.516;2023-04-09T01:02:14;16.53;;;13.27;;
47812;SDS011;34221;45.296;9.516;2023-04-09T01:02:28;17.08;;;13.60;;
47812;SDS011;34221;45.296;9.516;2023-04-09T01:02:44;16.77;;;13.45;;
47812;SDS011;34221;45.296;9.516;2023-04-09T01:02:59;17.90;;;13.55;;
47812;SDS011;34221;45.296;9.516;2023-04-09T01:03:14;18.23;;;13.68;;
47812;SDS011;34221;45.296;9.516;2023-04-09T01:03:30;16.60;;;13.23;;
47812;SDS011;34221;45.296;9.516;2023-04-09T01:03:45;16.35;;;13.05;;
47812;SDS011;34221;45.296;9.516;2023-04-09T01:04:00;16.52;;;12.95;;
47812;SDS011;34221;45.296;9.516;2023-04-09T01:04:15;16.90;;;13.63;;
47812;SDS011;34221;45.296;9.516;2023-04-09T01:04:30;17.03;;;14.10;;
47812;SDS011;34221;45.296;9.516;2023-04-09T01:04:45;16.10;;;13.33;;
47812;SDS011;34221;45.296;9.516;2023-04-09T01:05:00;15.80;;;13.27;;
47812;SDS011;34221;45.296;9.516;2023-04-09T01:05:15;15.45;;;13.25;;
47812;SDS011;34221;45.296;9.516;2023-04-09T01:05:33;15.80;;;13.57;;
47812;SDS011;34221;45.296;9.516;2023-04-09T01:05:59;16.42;;;13.90;;
47812;SDS011;34221;45.296;9.516;2023-04-09T01:06:47;21.38;;;14.05;;
47812;SDS011;34221;45.296;9.516;2023-04-09T01:07:13;17.65;;;13.57;;
47812;SDS011;34221;45.296;9.516;2023-04-09T01:08:37;17.23;;;13.93;;
47812;SDS011;34221;45.296;9.516;2023-04-09T01:10:00;17.17;;;13.45;;
47812;SDS011;34221;45.296;9.516;2023-04-09T01:10:46;18.02;;;13.25;;
47812;SDS011;34221;45.296;9.516;2023-04-09T01:11:29;18.45;;;13.50;;
47812;SDS011;34221;45.296;9.516;2023-04-09T01:12:00;17.48;;;14.25;;
47812;SDS011;34221;45.296;9.516;2023-04-09T01:12:47;16.50;;;12.30;;
47812;SDS011;34221;45.296;9.516;2023-04-09T01:13:12;17.45;;;14.15;;
47812;SDS011;34221;45.296;9.516;2023-04-09T01:13:34;16.70;;;13.10;;
47812;SDS011;34221;45.296;9.516;2023-04-09T01:14:07;14.82;;;12.43;;
47812;SDS011;34221;45.296;9.516;2023-04-09T01:15:10;16.13;;;12.65;;
47812;SDS011;34221;45.296;9.516;2023-04-09T01:15:24;16.23;;;13.07;;
47812;SDS011;34221;45.296;9.516;2023-04-09T01:15:47;18.10;;;13.90;;
47812;SDS011;34221;45.296;9.516;2023-04-09T01:16:07;16.85;;;13.75;;
47812;SDS011;34221;45.296;9.516;2023-04-09T01:16:26;16.77;;;13.60;;
47812;SDS011;34221;45.296;9.516;2023-04-09T01:16:43;18.45;;;13.80;;
47812;SDS011;34221;45.296;9.516;2023-04-09T01:17:03;17.88;;;13.52;;
47812;SDS011;34221;45.296;9.516;2023-04-09T01:17:30;17.73;;;13.07;;
47812;SDS011;34221;45.296;9.516;2023-04-09T01:18:14;15.25;;;13.13;;
47812;SDS011;34221;45.296;9.516;2023-04-09T01:18:43;16.60;;;13.93;;
47812;SDS011;34221;45.296;9.516;2023-04-09T01:19:18;16.25;;;13.27;;
47812;SDS011;34221;45.296;9.516;2023-04-09T01:19:40;17.30;;;13.70;;
47812;SDS011;34221;45.296;9.516;2023-04-09T01:20:30;17.70;;;13.52;;
47812;SDS011;34221;45.296;9.516;2023-04-09T01:21:11;17.75;;;13.60;;
47812;SDS011;34221;45.296;9.516;2023-04-09T01:21:29;18.40;;;13.48;;
47812;SDS011;34221;45.296;9.516;2023-04-09T01:21:45;18.75;;;13.77;;
47812;SDS011;34221;45.296;9.516;2023-04-09T01:22:01;16.52;;;13.27;;
47812;SDS011;34221;45.296;9.516;2023-04-09T01:23:28;19.88;;;13.77;;
47812;SDS011;34221;45.296;9.516;2023-04-09T01:24:51;18.23;;;13.65;;
47812;SDS011;34221;45.296;9.516;2023-04-09T01:26:04;17.80;;;13.40;;
47812;SDS011;34221;45.296;9.516;2023-04-09T01:26:37;16.85;;;12.90;;
47812;SDS011;34221;45.296;9.516;2023-04-09T01:26:59;16.30;;;12.82;;
47812;SDS011;34221;45.296;9.516;2023-04-09T01:27:36;17.77;;;13.68;;
47812;SDS011;34221;45.296;9.516;2023-04-09T01:28:06;16.05;;;13.05;;
47812;SDS011;34221;45.296;9.516;2023-04-09T01:28:32;17.20;;;13.00;;
47812;SDS011;34221;45.296;9.516;2023-04-09T01:28:52;15.93;;;12.68;;
47812;SDS011;34221;45.296;9.516;2023-04-09T01:29:09;15.63;;;12.90;;
47812;SDS011;34221;45.296;9.516;2023-04-09T01:29:24;17.73;;;13.55;;
47812;SDS011;34221;45.296;9.516;2023-04-09T01:29:45;17.50;;;13.20;;
47812;SDS011;34221;45.296;9.516;2023-04-09T01:30:03;16.67;;;13.73;;
47812;SDS011;34221;45.296;9.516;2023-04-09T01:30:19;17.23;;;13.45;;
47812;SDS011;34221;45.296;9.516;2023-04-09T01:30:35;17.67;;;13.35;;
47812;SDS011;34221;45.296;9.516;2023-04-09T01:30:52;17.80;;;13.70;;
47812;SDS011;34221;45.296;9.516;2023-04-09T01:31:16;17.98;;;13.60;;
47812;SDS011;34221;45.296;9.516;2023-04-09T01:31:34;17.27;;;13.50;;
47812;SDS011;34221;45.296;9.516;2023-04-09T01:31:51;16.13;;;13.30;;
47812;SDS011;34221;45.296;9.516;2023-04-09T01:32:07;15.88;;;12.90;;
47812;SDS011;34221;45.296;9.516;2023-04-09T01:32:23;18.67;;;14.20;;
47812;SDS011;34221;45.296;9.516;2023-04-09T01:32:39;21.17;;;14.27;;
47812;SDS011;34221;45.296;9.516;2023-04-09T01:32:56;18.13;;;12.80;;
47812;SDS011;34221;45.296;9.516;2023-04-09T01:33:12;17.05;;;12.82;;
47812;SDS011;34221;45.296;9.516;2023-04-09T01:33:28;16.92;;;13.48;;
47812;SDS011;34221;45.296;9.516;2023-04-09T01:33:44;16.42;;;13.48;;
47812;SDS011;34221;45.296;9.516;2023-04-09T01:33:59;15.85;;;13.00;;
47812;SDS011;34221;45.296;9.516;2023-04-09T01:34:15;17.65;;;13.88;;
47812;SDS011;34221;45.296;9.516;2023-04-09T01:34:31;17.17;;;13.65;;
47812;SDS011;34221;45.296;9.516;2023-04-09T01:34:47;20.48;;;12.93;;
47812;SDS011;34221;45.296;9.516;2023-04-09T01:35:03;21.58;;;13.15;;
47812;SDS011;34221;45.296;9.516;2023-04-09T01:35:20;17.50;;;13.20;;
47812;SDS011;34221;45.296;9.516;2023-04-09T01:35:35;18.30;;;13.32;;
47812;SDS011;34221;45.296;9.516;2023-04-09T01:35:50;18.27;;;13.05;;
47812;SDS011;34221;45.296;9.516;2023-04-09T01:36:07;17.75;;;13.10;;
47812;SDS011;34221;45.296;9.516;2023-04-09T01:36:23;16.98;;;13.05;;
47812;SDS011;34221;45.296;9.516;2023-04-09T01:36:40;14.50;;;12.63;;
47812;SDS011;34221;45.296;9.516;2023-04-09T01:36:59;16.55;;;13.15;;
47812;SDS011;34221;45.296;9.516;2023-04-09T01:37:16;15.75;;;12.63;;
47812;SDS011;34221;45.296;9.516;2023-04-09T01:37:32;14.60;;;12.32;;
47812;SDS011;34221;45.296;9.516;2023-04-09T01:37:48;15.75;;;13.35;;
47812;SDS011;34221;45.296;9.516;2023-04-09T01:38:05;16.90;;;13.75;;
47812;SDS011;34221;45.296;9.516;2023-04-09T01:38:21;16.48;;;12.98;;
47812;SDS011;34221;45.296;9.516;2023-04-09T01:38:38;16.38;;;13.00;;
47812;SDS011;34221;45.296;9.516;2023-04-09T01:38:55;16.20;;;13.13;;
47812;SDS011;34221;45.296;9.516;2023-04-09T01:39:10;16.92;;;12.68;;
47812;SDS011;34221;45.296;9.516;2023-04-09T01:39:25;15.57;;;11.93;;
47812;SDS011;34221;45.296;9.516;2023-04-09T01:39:41;14.85;;;12.05;;
47812;SDS011;34221;45.296;9.516;2023-04-09T01:39:56;16.17;;;12.35;;
47812;SDS011;34221;45.296;9.516;2023-04-09T01:40:12;15.77;;;11.98;;
47812;SDS011;34221;45.296;9.516;2023-04-09T01:40:26;15.10;;;12.18;;
47812;SDS011;34221;45.296;9.516;2023-04-09T01:40:41;15.35;;;12.30;;
47812;SDS011;34221;45.296;9.516;2023-04-09T01:40:57;15.70;;;12.30;;
47812;SDS011;34221;45.296;9.516;2023-04-09T01:41:15;14.80;;;12.23;;
47812;SDS011;34221;45.296;9.516;2023-04-09T01:41:33;15.57;;;12.43;;
47812;SDS011;34221;45.296;9.516;2023-04-09T01:41:49;17.15;;;12.70;;
47812;SDS011;34221;45.296;9.516;2023-04-09T01:42:04;17.58;;;12.88;;
47812;SDS011;34221;45.296;9.516;2023-04-09T01:42:24;17.58;;;13.15;;
47812;SDS011;34221;45.296;9.516;2023-04-09T01:42:39;17.35;;;13.43;;
47812;SDS011;34221;45.296;9.516;2023-04-09T01:42:55;18.77;;;12.88;;
47812;SDS011;34221;45.296;9.516;2023-04-09T01:43:11;18.95;;;12.60;;
47812;SDS011;34221;45.296;9.516;2023-04-09T01:43:27;17.17;;;13.32;;